Time;durP1;ratioP1;P1;durP2;ratioP2;P2;SDS_P1;SDS_P2;PMS_P1;PMS_P2;Temp;Humidity;BMP_temperature;BMP_pressure;BME280_temperature;BME280_humidity;BME280_pressure;Samples;Min_cycle;Max_cycle;Signal;HPM_P1;HPM_P2
2022/01/07 00:00:15;;;;;;;7.90;4.60;;;;;;;;;;5029201;28;20032;-76
2022/01/07 00:02:42;;;;;;;9.38;3.92;;;;;;;;;;5029448;28;20106;-76
2022/01/07 00:05:08;;;;;;;9.95;4.13;;;;;;;;;;5028978;28;20025;-76
2022/01/07 00:07:33;;;;;;;9.52;3.92;;;;;;;;;;5029268;28;20663;-76
2022/01/07 00:09:58;;;;;;;9.30;4.00;;;;;;;;;;5029031;28;20127;-76
2022/01/07 00:12:24;;;;;;;10.90;4.53;;;;;;;;;;5029282;28;20026;-76
2022/01/07 00:14:49;;;;;;;10.48;4.13;;;;;;;;;;5028745;28;20033;-76
2022/01/07 00:17:16;;;;;;;8.77;3.72;;;;;;;;;;5028988;28;20037;-76
2022/01/07 00:19:41;;;;;;;11.05;4.07;;;;;;;;;;5029060;28;20022;-76
2022/01/07 00:22:07;;;;;;;9.98;3.92;;;;;;;;;;5029326;28;20017;-76
2022/01/07 00:24:33;;;;;;;9.73;3.95;;;;;;;;;;5032115;28;20068;-76
2022/01/07 00:26:58;;;;;;;10.48;3.78;;;;;;;;;;5032791;28;20029;-76
2022/01/07 00:29:23;;;;;;;8.85;3.50;;;;;;;;;;5032560;28;20380;-76
2022/01/07 00:31:49;;;;;;;10.63;3.95;;;;;;;;;;5032481;28;20030;-76
2022/01/07 00:34:14;;;;;;;9.90;3.15;;;;;;;;;;5032182;28;20021;-76
2022/01/07 00:36:39;;;;;;;8.02;3.28;;;;;;;;;;5032723;28;20036;-76
2022/01/07 00:39:04;;;;;;;7.78;3.35;;;;;;;;;;5032359;28;20035;-76
2022/01/07 00:41:30;;;;;;;9.13;3.42;;;;;;;;;;5032505;28;20091;-76
2022/01/07 00:43:56;;;;;;;9.77;3.50;;;;;;;;;;5032054;28;20029;-76
2022/01/07 00:46:21;;;;;;;10.68;3.60;;;;;;;;;;5032276;28;20040;-76
2022/01/07 00:48:46;;;;;;;9.15;4.10;;;;;;;;;;5032465;28;20475;-76
2022/01/07 00:51:13;;;;;;;8.30;3.83;;;;;;;;;;5032737;28;20471;-77
2022/01/07 00:53:38;;;;;;;8.65;4.30;;;;;;;;;;5032369;28;20021;-76
2022/01/07 00:56:04;;;;;;;7.00;3.47;;;;;;;;;;5031944;28;20160;-76
2022/01/07 00:58:29;;;;;;;8.82;3.80;;;;;;;;;;5032172;28;20116;-76
2022/01/07 01:00:54;;;;;;;8.95;3.45;;;;;;;;;;5031899;28;20111;-76
2022/01/07 01:03:20;;;;;;;6.38;3.92;;;;;;;;;;5031920;28;20037;-76
2022/01/07 01:05:46;;;;;;;10.32;3.80;;;;;;;;;;5031689;28;20028;-76
2022/01/07 01:08:11;;;;;;;10.10;5.03;;;;;;;;;;5031975;28;20025;-76
2022/01/07 01:10:37;;;;;;;7.60;3.33;;;;;;;;;;5031770;28;20529;-76
2022/01/07 01:13:02;;;;;;;7.40;2.92;;;;;;;;;;5031748;28;20103;-76
2022/01/07 01:15:28;;;;;;;7.05;3.38;;;;;;;;;;5031415;28;20068;-76
2022/01/07 01:17:55;;;;;;;7.30;3.50;;;;;;;;;;5032020;28;20075;-76
2022/01/07 01:20:20;;;;;;;6.70;4.25;;;;;;;;;;5031531;28;20572;-76
2022/01/07 01:22:46;;;;;;;9.20;3.67;;;;;;;;;;5031707;28;20052;-76
2022/01/07 01:25:12;;;;;;;11.40;3.83;;;;;;;;;;5031432;28;20100;-76
2022/01/07 01:27:39;;;;;;;14.07;3.70;;;;;;;;;;5031703;28;20364;-76
2022/01/07 01:30:07;;;;;;;9.95;4.00;;;;;;;;;;5031334;28;20035;-76
2022/01/07 01:32:33;;;;;;;7.78;3.70;;;;;;;;;;5031417;28;20033;-76
2022/01/07 01:34:59;;;;;;;7.50;4.13;;;;;;;;;;5030743;28;20112;-76
2022/01/07 01:37:24;;;;;;;8.77;3.78;;;;;;;;;;5031492;28;20117;-76
2022/01/07 01:39:50;;;;;;;10.07;3.80;;;;;;;;;;5030023;28;20021;-76
2022/01/07 01:42:16;;;;;;;13.23;4.47;;;;;;;;;;5031299;28;20032;-76
2022/01/07 01:44:41;;;;;;;7.20;3.90;;;;;;;;;;5030953;28;20432;-76
2022/01/07 01:47:07;;;;;;;12.20;4.00;;;;;;;;;;5031420;28;20132;-76
2022/01/07 01:49:32;;;;;;;8.82;4.35;;;;;;;;;;5031462;28;20353;-76
2022/01/07 01:51:59;;;;;;;6.45;3.30;;;;;;;;;;5031407;28;20033;-76
2022/01/07 01:54:25;;;;;;;6.32;3.22;;;;;;;;;;5031452;28;20049;-76
2022/01/07 01:56:51;;;;;;;10.82;3.60;;;;;;;;;;5030938;28;20543;-76
2022/01/07 01:59:27;;;;;;;10.65;3.83;;;;;;;;;;5031524;28;20422;-76
2022/01/07 02:01:52;;;;;;;8.38;3.90;;;;;;;;;;5030818;28;20108;-76
2022/01/07 02:04:18;;;;;;;8.85;3.40;;;;;;;;;;5030575;28;20116;-76
2022/01/07 02:06:43;;;;;;;5.82;3.40;;;;;;;;;;5030978;28;20041;-76
2022/01/07 02:09:09;;;;;;;8.80;3.13;;;;;;;;;;5029483;28;20036;-76
2022/01/07 02:11:34;;;;;;;7.00;3.53;;;;;;;;;;5030679;28;20033;-77
2022/01/07 02:14:00;;;;;;;6.45;3.72;;;;;;;;;;5030382;28;20030;-76
2022/01/07 02:16:26;;;;;;;7.45;3.97;;;;;;;;;;5030542;28;20113;-76
2022/01/07 02:18:52;;;;;;;7.32;3.42;;;;;;;;;;5031001;28;20087;-76
2022/01/07 02:21:17;;;;;;;10.57;3.83;;;;;;;;;;5030496;28;20025;-76
2022/01/07 02:23:42;;;;;;;8.60;3.50;;;;;;;;;;5030485;28;20437;-76
2022/01/07 02:26:10;;;;;;;6.45;3.17;;;;;;;;;;5030622;28;20040;-76
2022/01/07 02:28:36;;;;;;;6.15;3.00;;;;;;;;;;5030418;28;20113;-76
2022/01/07 02:31:02;;;;;;;6.80;3.72;;;;;;;;;;5030271;28;20112;-76
2022/01/07 02:33:27;;;;;;;7.88;3.67;;;;;;;;;;5030172;28;20083;-76
2022/01/07 02:35:52;;;;;;;8.32;3.50;;;;;;;;;;5029981;28;20025;-76
2022/01/07 02:38:18;;;;;;;11.15;3.38;;;;;;;;;;5030380;28;20592;-76
2022/01/07 02:40:43;;;;;;;5.97;3.30;;;;;;;;;;5030271;28;20025;-76
2022/01/07 02:43:09;;;;;;;8.65;3.58;;;;;;;;;;5030466;28;20463;-76
2022/01/07 02:45:35;;;;;;;9.13;3.03;;;;;;;;;;5029187;28;20044;-75
2022/01/07 02:48:03;;;;;;;11.23;3.50;;;;;;;;;;5030362;28;20021;-75
2022/01/07 02:50:33;;;;;;;7.65;2.97;;;;;;;;;;5030165;28;20104;-76
2022/01/07 02:52:59;;;;;;;11.05;3.28;;;;;;;;;;5030033;28;20040;-76
2022/01/07 02:55:26;;;;;;;8.95;3.40;;;;;;;;;;5029632;28;20386;-76
2022/01/07 02:57:52;;;;;;;5.80;3.15;;;;;;;;;;5029892;28;20108;-76
2022/01/07 03:00:18;;;;;;;10.23;3.33;;;;;;;;;;5029872;28;20033;-76
2022/01/07 03:02:45;;;;;;;9.32;3.17;;;;;;;;;;5029619;28;20052;-76
2022/01/07 03:05:11;;;;;;;6.05;2.90;;;;;;;;;;5029657;28;20056;-76
2022/01/07 03:07:36;;;;;;;7.20;3.47;;;;;;;;;;5029676;28;20053;-76
2022/01/07 03:10:03;;;;;;;6.70;3.03;;;;;;;;;;5029789;28;20719;-77
2022/01/07 03:12:29;;;;;;;10.98;3.30;;;;;;;;;;5029425;28;20037;-75
2022/01/07 03:14:54;;;;;;;5.55;2.67;;;;;;;;;;5029616;28;20411;-76
2022/01/07 03:17:19;;;;;;;6.97;2.90;;;;;;;;;;5029459;28;20036;-76
2022/01/07 03:19:44;;;;;;;7.78;3.15;;;;;;;;;;5029705;28;20017;-76
2022/01/07 03:22:10;;;;;;;4.50;2.80;;;;;;;;;;5029543;28;20025;-77
2022/01/07 03:24:35;;;;;;;7.07;2.85;;;;;;;;;;5029487;28;20022;-76
2022/01/07 03:27:00;;;;;;;6.75;2.85;;;;;;;;;;5029319;28;20487;-75
2022/01/07 03:29:26;;;;;;;6.68;3.10;;;;;;;;;;5029819;28;20511;-76
2022/01/07 03:31:51;;;;;;;5.45;3.38;;;;;;;;;;5029391;28;20029;-76
2022/01/07 03:34:16;;;;;;;6.00;2.42;;;;;;;;;;5029249;28;20025;-76
2022/01/07 03:36:42;;;;;;;4.88;2.47;;;;;;;;;;5029666;28;20263;-74
2022/01/07 03:39:08;;;;;;;6.20;2.42;;;;;;;;;;5029699;28;20382;-76
2022/01/07 03:41:34;;;;;;;4.10;2.55;;;;;;;;;;5029943;28;20108;-77
2022/01/07 03:43:59;;;;;;;7.22;2.42;;;;;;;;;;5029280;28;20543;-76
2022/01/07 03:46:24;;;;;;;6.13;2.78;;;;;;;;;;5029556;28;20501;-76
2022/01/07 03:48:50;;;;;;;8.55;3.08;;;;;;;;;;5029695;28;20113;-76
2022/01/07 03:51:15;;;;;;;6.03;2.58;;;;;;;;;;5029251;28;20133;-76
2022/01/07 03:53:40;;;;;;;5.47;2.53;;;;;;;;;;5029218;28;20330;-76
2022/01/07 03:56:06;;;;;;;5.93;2.40;;;;;;;;;;5029013;28;20037;-75
2022/01/07 03:58:31;;;;;;;4.45;2.78;;;;;;;;;;5033020;28;20360;-76
2022/01/07 04:00:56;;;;;;;6.13;2.35;;;;;;;;;;5033575;28;20029;-77
2022/01/07 04:03:22;;;;;;;6.25;2.65;;;;;;;;;;5033694;28;20044;-75
2022/01/07 04:05:47;;;;;;;6.05;2.55;;;;;;;;;;5033045;28;20052;-75
2022/01/07 04:08:13;;;;;;;2.78;1.77;;;;;;;;;;5033222;28;20079;-74
2022/01/07 04:10:39;;;;;;;6.63;2.65;;;;;;;;;;5033106;28;20029;-76
2022/01/07 04:13:05;;;;;;;6.32;2.15;;;;;;;;;;5032998;28;20072;-76
2022/01/07 04:15:31;;;;;;;7.22;2.40;;;;;;;;;;5033221;28;20053;-76
2022/01/07 04:17:56;;;;;;;8.57;2.33;;;;;;;;;;5033415;28;20118;-77
2022/01/07 04:20:25;;;;;;;5.65;2.17;;;;;;;;;;5033208;28;20068;-76
2022/01/07 04:22:50;;;;;;;4.90;2.42;;;;;;;;;;5032653;28;20025;-76
2022/01/07 04:25:17;;;;;;;7.88;2.80;;;;;;;;;;5032603;28;20040;-76
2022/01/07 04:27:47;;;;;;;4.15;2.47;;;;;;;;;;5031363;28;20064;-76
2022/01/07 04:30:13;;;;;;;4.82;2.53;;;;;;;;;;5032917;28;20114;-76
2022/01/07 04:32:39;;;;;;;7.25;2.40;;;;;;;;;;5032852;28;20030;-77
2022/01/07 04:35:06;;;;;;;7.35;2.28;;;;;;;;;;5032877;28;20033;-76
2022/01/07 04:37:31;;;;;;;5.43;2.28;;;;;;;;;;5032712;28;20021;-76
2022/01/07 04:39:56;;;;;;;5.10;2.45;;;;;;;;;;5032653;28;20029;-76
2022/01/07 04:42:22;;;;;;;6.85;2.50;;;;;;;;;;5032284;28;20029;-76
2022/01/07 04:44:47;;;;;;;6.88;2.65;;;;;;;;;;5032172;28;20032;-76
2022/01/07 04:47:12;;;;;;;6.10;4.40;;;;;;;;;;5032329;28;20064;-77
2022/01/07 04:49:38;;;;;;;4.90;2.08;;;;;;;;;;5032586;28;20037;-76
2022/01/07 04:52:04;;;;;;;5.95;2.42;;;;;;;;;;5032289;28;20880;-75
2022/01/07 04:54:30;;;;;;;5.45;3.15;;;;;;;;;;5031947;28;20068;-76
2022/01/07 04:56:55;;;;;;;3.42;1.75;;;;;;;;;;5032151;28;20053;-75
2022/01/07 04:59:20;;;;;;;4.30;2.20;;;;;;;;;;5032514;28;20079;-76
2022/01/07 05:01:47;;;;;;;4.10;2.17;;;;;;;;;;5032033;28;20091;-76
2022/01/07 05:04:13;;;;;;;4.63;2.55;;;;;;;;;;5031789;28;20445;-76
2022/01/07 05:06:44;;;;;;;3.75;2.75;;;;;;;;;;5032106;28;20033;-76
2022/01/07 05:09:13;;;;;;;6.40;2.30;;;;;;;;;;5031077;28;20395;-76
2022/01/07 05:11:39;;;;;;;5.90;2.50;;;;;;;;;;5032129;28;20021;-76
2022/01/07 05:14:04;;;;;;;5.38;2.33;;;;;;;;;;5031775;28;20041;-76
2022/01/07 05:16:29;;;;;;;4.93;2.50;;;;;;;;;;5031882;28;20040;-75
2022/01/07 05:18:55;;;;;;;4.28;2.10;;;;;;;;;;5032087;28;20057;-76
2022/01/07 05:21:20;;;;;;;7.43;2.60;;;;;;;;;;5032424;28;20495;-74
2022/01/07 05:23:46;;;;;;;4.63;2.63;;;;;;;;;;5032183;28;20495;-76
2022/01/07 05:26:11;;;;;;;5.13;2.30;;;;;;;;;;5032229;28;20022;-76
2022/01/07 05:28:36;;;;;;;3.55;2.10;;;;;;;;;;5031976;28;20029;-76
2022/01/07 05:31:03;;;;;;;3.13;2.00;;;;;;;;;;5032235;28;20331;-75
2022/01/07 05:33:28;;;;;;;5.43;2.15;;;;;;;;;;5031579;28;20049;-76
2022/01/07 05:35:53;;;;;;;3.92;2.20;;;;;;;;;;5031364;28;20130;-75
2022/01/07 05:38:19;;;;;;;5.53;2.85;;;;;;;;;;5031300;28;20238;-73
2022/01/07 05:40:44;;;;;;;6.38;2.15;;;;;;;;;;5031431;28;20097;-75
2022/01/07 05:43:09;;;;;;;7.00;2.30;;;;;;;;;;5031126;28;20118;-75
2022/01/07 05:45:35;;;;;;;4.43;2.25;;;;;;;;;;5031255;28;20025;-76
2022/01/07 05:48:00;;;;;;;7.57;4.65;;;;;;;;;;5031135;28;20029;-76
2022/01/07 05:50:26;;;;;;;6.68;3.33;;;;;;;;;;5031456;28;20025;-75
2022/01/07 05:52:51;;;;;;;2.30;1.70;;;;;;;;;;5031501;28;20029;-73
2022/01/07 05:55:16;;;;;;;15.85;5.78;;;;;;;;;;5031255;28;20071;-74
2022/01/07 05:57:42;;;;;;;7.05;2.42;;;;;;;;;;5031234;28;20029;-74
2022/01/07 06:00:09;;;;;;;3.95;2.08;;;;;;;;;;5031076;28;20025;-73
2022/01/07 06:02:34;;;;;;;4.45;2.20;;;;;;;;;;5030714;28;20505;-76
2022/01/07 06:05:00;;;;;;;8.93;2.53;;;;;;;;;;5030938;28;20037;-75
2022/01/07 06:07:25;;;;;;;4.47;2.53;;;;;;;;;;5030764;28;20039;-75
2022/01/07 06:09:51;;;;;;;6.72;2.20;;;;;;;;;;5031110;28;20037;-75
2022/01/07 06:12:16;;;;;;;5.25;2.40;;;;;;;;;;5030927;28;20056;-75
2022/01/07 06:14:42;;;;;;;6.05;1.92;;;;;;;;;;5030570;28;20036;-75
2022/01/07 06:17:10;;;;;;;9.38;2.28;;;;;;;;;;5030897;28;20372;-73
2022/01/07 06:19:36;;;;;;;4.72;2.08;;;;;;;;;;5030844;28;20025;-75
2022/01/07 06:22:01;;;;;;;8.15;3.50;;;;;;;;;;5030833;28;20427;-76
2022/01/07 06:24:26;;;;;;;4.53;2.20;;;;;;;;;;5031642;28;20391;-76
2022/01/07 06:26:51;;;;;;;5.68;2.67;;;;;;;;;;5031073;28;20053;-76
2022/01/07 06:29:17;;;;;;;6.18;2.50;;;;;;;;;;5030701;28;20390;-73
2022/01/07 06:31:42;;;;;;;4.13;2.13;;;;;;;;;;5030596;28;20057;-74
2022/01/07 06:34:07;;;;;;;2.45;1.52;;;;;;;;;;5030051;28;20029;-74
2022/01/07 06:36:33;;;;;;;4.28;1.95;;;;;;;;;;5030374;28;20112;-75
2022/01/07 06:38:58;;;;;;;4.30;2.33;;;;;;;;;;5030435;28;20053;-74
2022/01/07 06:41:24;;;;;;;3.50;2.17;;;;;;;;;;5030433;28;20021;-75
2022/01/07 06:43:49;;;;;;;6.25;2.78;;;;;;;;;;5030152;28;20610;-75
2022/01/07 06:46:14;;;;;;;4.68;1.95;;;;;;;;;;5029991;28;20171;-75
2022/01/07 06:48:41;;;;;;;6.85;2.90;;;;;;;;;;5030357;28;20033;-75
2022/01/07 06:51:06;;;;;;;6.22;2.72;;;;;;;;;;5030205;28;20109;-76
2022/01/07 06:53:31;;;;;;;4.30;2.65;;;;;;;;;;5028700;28;20145;-75
2022/01/07 06:55:58;;;;;;;4.85;2.10;;;;;;;;;;5029045;28;20065;-73
2022/01/07 06:58:23;;;;;;;6.57;3.25;;;;;;;;;;5029970;28;20037;-76
2022/01/07 07:00:49;;;;;;;3.70;2.25;;;;;;;;;;5028070;28;20352;-73
2022/01/07 07:03:14;;;;;;;4.50;2.33;;;;;;;;;;5027622;28;20025;-71
2022/01/07 07:05:39;;;;;;;4.63;2.30;;;;;;;;;;5029881;28;20032;-74
2022/01/07 07:08:05;;;;;;;3.97;2.20;;;;;;;;;;5029711;28;20364;-75
2022/01/07 07:10:31;;;;;;;5.72;2.17;;;;;;;;;;5019891;28;20029;-74
2022/01/07 07:12:57;;;;;;;5.53;2.97;;;;;;;;;;5024301;28;20033;-75
2022/01/07 07:15:22;;;;;;;5.32;3.30;;;;;;;;;;5025406;28;20036;-76
2022/01/07 07:17:48;;;;;;;5.25;2.50;;;;;;;;;;5026670;28;20434;-77
2022/01/07 07:20:14;;;;;;;5.18;2.58;;;;;;;;;;5025510;28;20030;-76
2022/01/07 07:22:39;;;;;;;6.03;3.10;;;;;;;;;;5025108;28;20799;-77
2022/01/07 07:25:05;;;;;;;9.10;3.35;;;;;;;;;;5025675;28;20029;-74
2022/01/07 07:27:30;;;;;;;6.18;2.47;;;;;;;;;;5025703;28;20031;-76
2022/01/07 07:29:55;;;;;;;5.10;2.70;;;;;;;;;;5025150;28;20120;-76
2022/01/07 07:32:26;;;;;;;6.05;2.67;;;;;;;;;;5025065;28;20065;-75
2022/01/07 07:35:03;;;;;;;7.75;2.53;;;;;;;;;;5024512;28;20025;-76
2022/01/07 07:37:29;;;;;;;5.00;2.67;;;;;;;;;;5025066;28;20635;-76
2022/01/07 07:39:55;;;;;;;4.88;2.95;;;;;;;;;;5025286;28;20033;-76
2022/01/07 07:42:20;;;;;;;6.70;2.92;;;;;;;;;;5025808;28;20024;-75
2022/01/07 07:44:46;;;;;;;4.07;2.60;;;;;;;;;;5010771;28;20037;-76
2022/01/07 07:47:11;;;;;;;5.03;2.83;;;;;;;;;;5025865;28;20045;-76
2022/01/07 07:49:36;;;;;;;7.05;2.90;;;;;;;;;;5022658;28;20687;-75
2022/01/07 07:52:03;;;;;;;4.95;2.30;;;;;;;;;;5024855;28;20025;-76
2022/01/07 07:54:29;;;;;;;3.70;2.15;;;;;;;;;;5024846;28;20379;-74
2022/01/07 07:56:57;;;;;;;3.72;2.20;;;;;;;;;;5024930;28;20047;-76
2022/01/07 07:59:23;;;;;;;13.80;6.32;;;;;;;;;;5025207;28;20061;-75
2022/01/07 08:01:48;;;;;;;4.63;2.58;;;;;;;;;;5025791;28;20064;-75
2022/01/07 08:04:15;;;;;;;7.13;2.95;;;;;;;;;;5024750;28;20030;-75
2022/01/07 08:06:40;;;;;;;5.72;2.25;;;;;;;;;;5023373;28;20025;-75
2022/01/07 08:09:06;;;;;;;8.05;4.60;;;;;;;;;;5025567;28;20140;-74
2022/01/07 08:11:38;;;;;;;11.88;4.85;;;;;;;;;;5025640;28;20043;-75
2022/01/07 08:16:47;;;;;;;9.98;4.65;;;;;;;;;;5025128;28;20179;-76
2022/01/07 08:19:12;;;;;;;5.63;2.90;;;;;;;;;;5025868;28;20108;-77
2022/01/07 08:21:37;;;;;;;5.32;2.90;;;;;;;;;;5024811;28;20632;-75
2022/01/07 08:24:03;;;;;;;5.70;2.70;;;;;;;;;;5024828;28;20022;-75
2022/01/07 08:26:28;;;;;;;4.47;2.80;;;;;;;;;;5024898;28;20030;-76
2022/01/07 08:29:00;;;;;;;3.80;2.40;;;;;;;;;;5024353;28;20601;-75
2022/01/07 08:34:53;;;;;;;3.53;2.00;;;;;;;;;;5024354;28;20029;-75
2022/01/07 08:36:55;;;;;;;2.97;1.85;;;;;;;;;;5025294;28;20534;-74
2022/01/07 08:39:22;;;;;;;4.13;2.15;;;;;;;;;;5024198;28;20029;-75
2022/01/07 08:41:47;;;;;;;14.40;8.40;;;;;;;;;;5024212;28;20048;-75
2022/01/07 08:44:12;;;;;;;24.05;11.18;;;;;;;;;;5025953;28;20522;-74
2022/01/07 08:46:39;;;;;;;15.90;7.60;;;;;;;;;;5028026;28;20053;-76
2022/01/07 08:49:05;;;;;;;23.88;10.73;;;;;;;;;;5027966;28;20033;-75
2022/01/07 08:51:31;;;;;;;19.73;7.88;;;;;;;;;;5028761;28;20112;-76
2022/01/07 08:53:57;;;;;;;13.95;7.57;;;;;;;;;;5028943;28;20156;-76
2022/01/07 08:56:24;;;;;;;4.28;3.08;;;;;;;;;;5018701;28;20108;-75
2022/01/07 08:58:51;;;;;;;5.78;2.70;;;;;;;;;;5024881;28;20036;-75
2022/01/07 09:01:16;;;;;;;8.50;3.53;;;;;;;;;;5027562;28;20134;-74
2022/01/07 09:03:41;;;;;;;2.97;1.73;;;;;;;;;;5027353;28;20033;-74
2022/01/07 09:06:06;;;;;;;5.68;2.42;;;;;;;;;;5026915;28;20037;-76
2022/01/07 09:08:32;;;;;;;2.33;1.98;;;;;;;;;;5027971;28;20091;-75
2022/01/07 09:10:57;;;;;;;5.28;1.70;;;;;;;;;;5027736;28;20372;-76
2022/01/07 09:13:23;;;;;;;2.00;1.63;;;;;;;;;;5027523;28;20500;-75
2022/01/07 09:15:48;;;;;;;3.67;1.80;;;;;;;;;;5028132;28;20494;-75
2022/01/07 09:18:14;;;;;;;2.58;1.80;;;;;;;;;;5027514;28;20030;-75
2022/01/07 09:20:42;;;;;;;2.60;1.70;;;;;;;;;;5027393;28;20033;-75
2022/01/07 09:23:08;;;;;;;1.95;1.40;;;;;;;;;;5027472;28;20025;-74
2022/01/07 09:25:34;;;;;;;2.97;1.75;;;;;;;;;;5026871;28;20034;-76
2022/01/07 09:27:59;;;;;;;1.67;1.40;;;;;;;;;;5026332;28;20055;-76
2022/01/07 09:30:25;;;;;;;2.95;1.50;;;;;;;;;;5027565;28;20057;-74
2022/01/07 09:32:50;;;;;;;2.10;1.30;;;;;;;;;;5026417;28;20562;-75
2022/01/07 09:35:16;;;;;;;2.00;1.48;;;;;;;;;;5027296;28;20029;-75
2022/01/07 09:37:43;;;;;;;3.35;1.58;;;;;;;;;;5027521;28;20605;-76
2022/01/07 09:40:09;;;;;;;3.33;1.60;;;;;;;;;;5026422;28;20544;-76
2022/01/07 09:42:35;;;;;;;2.28;1.58;;;;;;;;;;5027102;28;20029;-75
2022/01/07 09:45:00;;;;;;;1.70;1.27;;;;;;;;;;5026664;28;20550;-76
2022/01/07 09:47:27;;;;;;;5.25;1.55;;;;;;;;;;5026792;28;20103;-77
2022/01/07 09:49:52;;;;;;;1.75;1.35;;;;;;;;;;5026852;28;20053;-76
2022/01/07 09:52:18;;;;;;;3.95;2.35;;;;;;;;;;5026562;28;20061;-76
2022/01/07 09:54:43;;;;;;;3.38;1.58;;;;;;;;;;5026370;28;20037;-73
2022/01/07 09:57:09;;;;;;;3.05;1.10;;;;;;;;;;5026252;28;20022;-75
2022/01/07 09:59:36;;;;;;;2.80;1.20;;;;;;;;;;5023674;28;20029;-75
2022/01/07 10:02:09;;;;;;;2.95;1.40;;;;;;;;;;5024050;28;20036;-76
2022/01/07 10:04:36;;;;;;;1.20;1.08;;;;;;;;;;5027422;28;20375;-75
2022/01/07 10:07:22;;;;;;;4.65;1.52;;;;;;;;;;5024849;28;20037;-76
2022/01/07 10:10:17;;;;;;;3.40;1.50;;;;;;;;;;5027248;28;20060;-75
2022/01/07 10:13:06;;;;;;;2.13;1.25;;;;;;;;;;5026732;28;20243;-75
2022/01/07 10:15:33;;;;;;;2.28;1.50;;;;;;;;;;5027251;28;20326;-75
2022/01/07 10:18:02;;;;;;;2.22;1.45;;;;;;;;;;5027405;28;20028;-75
2022/01/07 10:20:30;;;;;;;1.92;1.73;;;;;;;;;;5027136;28;20033;-76
2022/01/07 10:23:02;;;;;;;3.45;1.70;;;;;;;;;;5027813;28;20475;-76
2022/01/07 10:25:29;;;;;;;2.03;1.30;;;;;;;;;;5027484;28;20218;-76
2022/01/07 10:28:09;;;;;;;2.53;1.27;;;;;;;;;;5026399;28;20025;-75
2022/01/07 10:30:38;;;;;;;5.65;3.22;;;;;;;;;;5026932;28;20510;-77
2022/01/07 10:33:15;;;;;;;2.03;1.55;;;;;;;;;;5030389;28;20057;-76
2022/01/07 10:35:40;;;;;;;2.60;1.40;;;;;;;;;;5011219;28;20029;-76
2022/01/07 10:38:06;;;;;;;1.90;1.50;;;;;;;;;;5007632;28;20210;-76
2022/01/07 10:40:39;;;;;;;1.30;1.20;;;;;;;;;;5006870;28;20539;-76
2022/01/07 10:43:15;;;;;;;;;;;;;;;;;;5007198;28;20022;-75
2022/01/07 10:45:46;;;;;;;4.15;3.10;;;;;;;;;;5006944;28;19981;-76
2022/01/07 10:48:12;;;;;;;1.90;1.50;;;;;;;;;;5006080;28;20030;-76
2022/01/07 10:50:40;;;;;;;4.78;2.38;;;;;;;;;;5006591;28;20026;-75
2022/01/07 10:53:28;;;;;;;1.98;1.20;;;;;;;;;;5006078;28;20026;-74
2022/01/07 10:55:57;;;;;;;2.03;1.33;;;;;;;;;;5006821;28;20026;-74
2022/01/07 10:58:22;;;;;;;4.07;1.20;;;;;;;;;;5006497;28;20337;-74
2022/01/07 11:00:47;;;;;;;1.58;1.10;;;;;;;;;;5002890;28;20144;-76
2022/01/07 11:03:13;;;;;;;1.67;1.20;;;;;;;;;;5005527;28;20041;-74
2022/01/07 11:05:39;;;;;;;2.97;2.28;;;;;;;;;;5008464;28;20033;-74
2022/01/07 11:08:04;;;;;;;1.38;1.20;;;;;;;;;;5017147;28;20033;-76
2022/01/07 11:10:30;;;;;;;1.60;1.33;;;;;;;;;;5026458;28;20037;-77
2022/01/07 11:12:57;;;;;;;1.48;1.20;;;;;;;;;;5025607;28;20352;-75
2022/01/07 11:15:22;;;;;;;1.90;1.38;;;;;;;;;;5025402;28;20399;-75
2022/01/07 11:17:47;;;;;;;3.03;2.30;;;;;;;;;;5025277;28;20033;-74
2022/01/07 11:20:14;;;;;;;1.40;1.20;;;;;;;;;;5024977;28;20449;-76
2022/01/07 11:22:42;;;;;;;3.08;2.70;;;;;;;;;;5024759;28;20501;-73
2022/01/07 11:25:13;;;;;;;2.83;1.60;;;;;;;;;;5025318;28;20026;-72
2022/01/07 11:27:54;;;;;;;1.45;1.35;;;;;;;;;;5023577;28;20020;-74
2022/01/07 11:30:23;;;;;;;1.77;1.30;;;;;;;;;;5025131;28;20032;-72
2022/01/07 11:32:52;;;;;;;6.50;1.90;;;;;;;;;;5022002;28;20411;-76
2022/01/07 11:35:21;;;;;;;2.42;1.73;;;;;;;;;;5024834;28;20557;-74
2022/01/07 11:37:58;;;;;;;2.03;1.50;;;;;;;;;;5022541;28;20337;-74
2022/01/07 11:40:32;;;;;;;2.25;1.42;;;;;;;;;;5023636;28;20104;-72
2022/01/07 11:43:00;;;;;;;2.60;1.58;;;;;;;;;;5026088;28;20064;-73
2022/01/07 11:45:29;;;;;;;2.83;2.08;;;;;;;;;;5023965;28;20253;-73
2022/01/07 11:47:55;;;;;;;7.40;4.13;;;;;;;;;;5025366;28;20499;-74
2022/01/07 11:50:23;;;;;;;2.15;1.80;;;;;;;;;;5026155;28;20104;-74
2022/01/07 11:53:05;;;;;;;2.65;1.98;;;;;;;;;;5025861;28;20026;-71
2022/01/07 11:55:33;;;;;;;3.63;2.03;;;;;;;;;;5026842;28;20142;-77
2022/01/07 11:58:03;;;;;;;2.90;2.55;;;;;;;;;;5023880;28;20124;-73
2022/01/07 12:00:47;;;;;;;3.25;2.10;;;;;;;;;;5023860;28;20037;-76
2022/01/07 12:03:12;;;;;;;3.33;2.25;;;;;;;;;;5032012;28;20188;-74
2022/01/07 12:05:38;;;;;;;3.33;2.60;;;;;;;;;;5025997;28;20033;-75
2022/01/07 12:08:03;;;;;;;4.32;2.63;;;;;;;;;;5026585;28;20357;-74
2022/01/07 12:10:29;;;;;;;4.57;2.20;;;;;;;;;;5024664;28;20037;-75
2022/01/07 12:12:59;;;;;;;3.08;2.42;;;;;;;;;;5034601;28;20025;-75
2022/01/07 12:15:25;;;;;;;4.03;2.17;;;;;;;;;;5032644;28;20045;-75
2022/01/07 12:17:50;;;;;;;4.65;2.83;;;;;;;;;;5037085;28;20056;-76
2022/01/07 12:20:46;;;;;;;5.82;2.40;;;;;;;;;;5029159;28;20079;-76
2022/01/07 12:23:21;;;;;;;2.63;2.22;;;;;;;;;;5027436;28;20057;-74
2022/01/07 12:25:49;;;;;;;4.63;3.05;;;;;;;;;;5028008;28;20025;-75
2022/01/07 12:28:14;;;;;;;3.35;2.22;;;;;;;;;;5027577;28;20112;-72
2022/01/07 12:30:41;;;;;;;4.40;2.95;;;;;;;;;;5028990;28;20160;-75
2022/01/07 12:33:07;;;;;;;6.28;3.20;;;;;;;;;;5028431;28;20045;-75
2022/01/07 12:35:33;;;;;;;8.13;4.70;;;;;;;;;;5028394;28;20033;-76
2022/01/07 12:37:58;;;;;;;6.90;5.28;;;;;;;;;;5029544;28;20487;-74
2022/01/07 12:40:23;;;;;;;5.25;3.63;;;;;;;;;;5030121;28;20056;-75
2022/01/07 12:42:49;;;;;;;5.70;3.35;;;;;;;;;;5031373;28;20021;-75
2022/01/07 12:45:19;;;;;;;6.40;3.50;;;;;;;;;;5032981;28;20391;-73
2022/01/07 12:47:45;;;;;;;4.78;3.20;;;;;;;;;;5035571;28;20040;-73
2022/01/07 12:50:11;;;;;;;6.30;3.05;;;;;;;;;;5033320;28;20017;-76
2022/01/07 12:52:41;;;;;;;7.50;3.35;;;;;;;;;;5043033;28;20052;-74
2022/01/07 12:55:16;;;;;;;6.03;3.22;;;;;;;;;;5019133;28;20035;-74
2022/01/07 12:57:57;;;;;;;6.43;3.88;;;;;;;;;;5026962;28;20030;-76
2022/01/07 13:00:29;;;;;;;6.22;3.58;;;;;;;;;;5027017;28;20252;-76
2022/01/07 13:02:58;;;;;;;5.57;3.03;;;;;;;;;;5026568;28;20032;-76
2022/01/07 13:05:31;;;;;;;5.95;2.95;;;;;;;;;;5023774;28;20043;-72
2022/01/07 13:07:59;;;;;;;5.18;3.13;;;;;;;;;;5034397;28;20022;-74
2022/01/07 13:10:27;;;;;;;9.18;3.20;;;;;;;;;;5028124;28;20045;-75
2022/01/07 13:13:00;;;;;;;7.05;3.85;;;;;;;;;;5027661;28;20029;-75
2022/01/07 13:15:37;;;;;;;4.68;2.90;;;;;;;;;;5025788;28;20610;-76
2022/01/07 13:18:26;;;;;;;4.47;3.17;;;;;;;;;;5026693;28;20394;-76
2022/01/07 13:20:57;;;;;;;5.93;3.30;;;;;;;;;;5019597;28;20253;-76
2022/01/07 13:23:24;;;;;;;5.35;3.40;;;;;;;;;;5027907;28;20029;-78
2022/01/07 13:25:52;;;;;;;7.65;4.63;;;;;;;;;;5028625;28;20031;-74
2022/01/07 13:28:32;;;;;;;5.15;3.30;;;;;;;;;;5028626;28;20471;-76
2022/01/07 13:30:57;;;;;;;3.75;2.30;;;;;;;;;;5028670;28;20399;-74
2022/01/07 13:33:26;;;;;;;6.13;2.83;;;;;;;;;;5025261;28;20033;-77
2022/01/07 13:36:08;;;;;;;4.10;2.53;;;;;;;;;;5025058;28;20026;-76
2022/01/07 13:38:35;;;;;;;7.20;3.33;;;;;;;;;;5027394;28;20032;-78
2022/01/07 13:41:12;;;;;;;6.82;3.55;;;;;;;;;;5029284;28;20052;-75
2022/01/07 13:43:41;;;;;;;5.10;3.47;;;;;;;;;;5031500;28;20026;-76
2022/01/07 13:46:11;;;;;;;6.20;3.90;;;;;;;;;;5037887;28;20021;-76
2022/01/07 13:48:55;;;;;;;7.70;3.10;;;;;;;;;;5035615;28;20074;-76
2022/01/07 13:51:28;;;;;;;4.07;2.85;;;;;;;;;;5029000;28;20029;-77
2022/01/07 13:54:31;;;;;;;4.25;2.83;;;;;;;;;;5028212;28;20349;-77
2022/01/07 13:57:03;;;;;;;3.88;2.88;;;;;;;;;;5021668;28;20041;-76
2022/01/07 13:59:50;;;;;;;4.45;2.65;;;;;;;;;;5028549;28;20402;-77
2022/01/07 14:02:29;;;;;;;8.73;3.92;;;;;;;;;;5028644;28;20196;-77
2022/01/07 14:04:55;;;;;;;5.50;2.45;;;;;;;;;;5028260;28;20040;-76
2022/01/07 14:07:24;;;;;;;4.90;2.90;;;;;;;;;;5028121;28;20033;-77
2022/01/07 14:10:00;;;;;;;4.50;2.55;;;;;;;;;;5028854;28;20035;-75
2022/01/07 14:12:25;;;;;;;4.78;3.00;;;;;;;;;;5037602;28;20116;-75
2022/01/07 14:15:03;;;;;;;4.78;3.10;;;;;;;;;;5029158;28;20121;-78
2022/01/07 14:17:28;;;;;;;10.05;5.82;;;;;;;;;;5029639;28;20021;-77
2022/01/07 14:19:54;;;;;;;4.13;2.70;;;;;;;;;;5027878;28;20032;-73
2022/01/07 14:22:20;;;;;;;4.72;3.03;;;;;;;;;;5027583;28;20364;-77
2022/01/07 14:24:45;;;;;;;4.32;3.00;;;;;;;;;;5028438;28;20048;-79
2022/01/07 14:27:10;;;;;;;4.00;2.80;;;;;;;;;;5028668;28;20029;-76
2022/01/07 14:29:36;;;;;;;5.05;3.30;;;;;;;;;;5030204;28;20098;-77
2022/01/07 14:32:01;;;;;;;6.70;3.50;;;;;;;;;;5027906;28;20075;-77
2022/01/07 14:34:26;;;;;;;3.90;3.15;;;;;;;;;;5029362;28;20375;-74
2022/01/07 14:36:52;;;;;;;2.95;2.45;;;;;;;;;;5031412;28;20025;-78
2022/01/07 14:39:17;;;;;;;4.80;2.78;;;;;;;;;;5029800;28;20479;-77
2022/01/07 14:41:42;;;;;;;5.07;4.50;;;;;;;;;;5030106;28;20025;-77
2022/01/07 14:44:07;;;;;;;3.80;2.88;;;;;;;;;;5031427;28;20213;-76
2022/01/07 14:46:33;;;;;;;6.22;2.40;;;;;;;;;;5030765;28;20045;-76
2022/01/07 14:48:59;;;;;;;4.70;3.08;;;;;;;;;;5030449;28;20040;-75